Time;durP1;ratioP1;P1;durP2;ratioP2;P2;SDS_P1;SDS_P2;PMS_P1;PMS_P2;Temp;Humidity;BMP_temperature;BMP_pressure;BME280_temperature;BME280_humidity;BME280_pressure;Samples;Min_cycle;Max_cycle;Signal;HPM_P1;HPM_P2
2022/08/30 00:01:10;;;;;;;1999.90;999.90;;;21.30;48.40;;;;;;5037977;28;20410;-72
2022/08/30 00:03:41;;;;;;;1999.90;999.90;;;21.20;49.90;;;;;;5037758;28;20423;-72
2022/08/30 00:06:08;;;;;;;1999.90;999.90;;;21.10;50.30;;;;;;5037539;28;20423;-71
2022/08/30 00:08:35;;;;;;;1999.90;999.90;;;21.10;51.10;;;;;;5038090;28;20527;-71
2022/08/30 00:11:04;;;;;;;1999.90;999.90;;;21.10;52.00;;;;;;5038123;28;20385;-72
2022/08/30 00:13:30;;;;;;;1999.90;999.90;;;21.00;52.70;;;;;;5037393;28;20428;-72
2022/08/30 00:15:56;;;;;;;1999.90;999.90;;;20.90;53.40;;;;;;5037222;28;20404;-72
2022/08/30 00:18:22;;;;;;;1999.90;999.90;;;20.90;53.80;;;;;;5038405;28;20412;-71
2022/08/30 00:20:49;;;;;;;1999.90;999.90;;;20.80;54.60;;;;;;5038579;28;20407;-72
2022/08/30 00:23:17;;;;;;;1999.90;999.90;;;20.80;55.50;;;;;;5038405;28;20898;-72
2022/08/30 00:25:43;;;;;;;1999.90;999.90;;;20.70;56.60;;;;;;5037916;28;20424;-72
2022/08/30 00:28:10;;;;;;;1999.90;999.90;;;20.70;57.70;;;;;;5037236;28;20470;-72
2022/08/30 00:30:36;;;;;;;1999.90;999.90;;;20.60;59.20;;;;;;5037566;28;20381;-71
2022/08/30 00:33:02;;;;;;;1999.90;999.90;;;20.50;60.90;;;;;;5037652;28;20368;-71
2022/08/30 00:35:27;;;;;;;1999.90;999.90;;;20.50;63.20;;;;;;5037356;28;20539;-71
2022/08/30 00:37:53;;;;;;;1999.90;999.90;;;20.40;65.70;;;;;;5037749;28;20247;-72
2022/08/30 00:40:20;;;;;;;1999.90;999.90;;;20.40;68.50;;;;;;5037902;28;20169;-71
2022/08/30 00:42:47;;;;;;;1999.90;999.90;;;20.40;70.70;;;;;;5039135;28;20228;-71
2022/08/30 00:45:27;;;;;;;1999.90;999.90;;;20.40;72.70;;;;;;5037737;28;20427;-70
2022/08/30 00:47:53;;;;;;;1999.90;999.90;;;20.40;74.00;;;;;;5037296;28;21060;-71
2022/08/30 00:50:23;;;;;;;1999.90;999.90;;;20.40;75.50;;;;;;5038386;28;20414;-71
2022/08/30 00:52:51;;;;;;;1999.90;999.90;;;20.40;76.70;;;;;;5037999;28;20409;-72
2022/08/30 00:55:18;;;;;;;1999.90;999.90;;;20.50;78.00;;;;;;5038017;28;20429;-72
2022/08/30 00:57:46;;;;;;;1999.90;999.90;;;20.50;79.10;;;;;;5037249;28;20934;-71
2022/08/30 01:00:14;;;;;;;1999.90;999.90;;;20.50;79.90;;;;;;5037619;28;20490;-71
2022/08/30 01:02:40;;;;;;;1999.90;999.90;;;20.50;80.60;;;;;;5037598;28;20418;-71
2022/08/30 01:05:09;;;;;;;1999.90;999.90;;;20.50;81.30;;;;;;5037520;28;20428;-71
2022/08/30 01:07:35;;;;;;;1999.90;999.90;;;20.50;81.80;;;;;;5037456;28;20463;-71
2022/08/30 01:10:02;;;;;;;1999.90;999.90;;;20.40;83.20;;;;;;5036999;28;20408;-71
2022/08/30 01:12:28;;;;;;;1999.90;999.90;;;20.40;84.60;;;;;;5037831;28;20512;-72
2022/08/30 01:14:55;;;;;;;1999.90;999.90;;;20.40;86.20;;;;;;5037632;28;20435;-72
2022/08/30 01:17:21;;;;;;;1999.90;999.90;;;20.40;87.50;;;;;;5037473;28;20489;-71
2022/08/30 01:19:51;;;;;;;1999.90;999.90;;;20.30;88.90;;;;;;5037076;28;20512;-71
2022/08/30 01:22:28;;;;;;;1999.90;999.90;;;20.20;90.30;;;;;;5036673;28;20471;-71
2022/08/30 01:24:57;;;;;;;1999.90;999.90;;;20.20;91.10;;;;;;5036530;28;20524;-71
2022/08/30 01:27:24;;;;;;;1999.90;999.90;;;20.20;91.80;;;;;;5032741;28;20429;-71
2022/08/30 01:29:50;;;;;;;1999.90;999.90;;;20.20;92.60;;;;;;5033220;28;20972;-71
2022/08/30 01:32:18;;;;;;;1999.90;999.90;;;20.10;93.40;;;;;;5032982;28;20415;-71
2022/08/30 01:34:47;;;;;;;1999.90;999.90;;;20.10;94.30;;;;;;5032779;28;20456;-71
2022/08/30 01:37:34;;;;;;;1999.90;999.90;;;20.10;95.20;;;;;;5032614;28;20382;-71
2022/08/30 01:40:00;;;;;;;1999.90;999.90;;;20.10;96.20;;;;;;5032797;28;20448;-71
2022/08/30 01:42:27;;;;;;;1999.90;999.90;;;20.10;97.00;;;;;;5032767;28;20413;-71
2022/08/30 01:44:52;;;;;;;1999.90;999.90;;;20.10;97.90;;;;;;5032832;28;20433;-71
2022/08/30 01:47:18;;;;;;;1999.90;999.90;;;20.00;98.50;;;;;;5032503;28;20822;-71
2022/08/30 01:49:45;;;;;;;1999.90;999.90;;;20.00;99.30;;;;;;5032646;28;20172;-71
2022/08/30 01:52:11;;;;;;;1999.90;999.90;;;20.00;99.90;;;;;;5032680;28;20182;-71
2022/08/30 01:54:39;;;;;;;1999.90;999.90;;;20.10;99.90;;;;;;5032537;28;20472;-71
2022/08/30 01:57:11;;;;;;;1999.90;999.90;;;20.10;99.90;;;;;;5032168;28;20425;-71
2022/08/30 01:59:38;;;;;;;1999.90;999.90;;;20.10;99.90;;;;;;5032518;28;20458;-71
2022/08/30 02:02:05;;;;;;;1999.90;999.90;;;20.10;99.90;;;;;;5032427;28;20408;-71
2022/08/30 02:04:31;;;;;;;1999.90;999.90;;;20.10;99.90;;;;;;5032314;28;20474;-71
2022/08/30 02:06:56;;;;;;;1999.90;999.90;;;20.10;99.90;;;;;;5032010;28;20487;-71
2022/08/30 02:09:22;;;;;;;1999.90;999.90;;;20.10;99.90;;;;;;5032290;28;20195;-70
2022/08/30 02:11:49;;;;;;;1999.90;999.90;;;20.10;99.90;;;;;;5034128;28;20168;-71
2022/08/30 02:14:15;;;;;;;1999.90;999.90;;;20.10;99.90;;;;;;5035638;28;20398;-71
2022/08/30 02:16:40;;;;;;;1999.90;999.90;;;20.10;99.90;;;;;;5035177;28;20411;-71
2022/08/30 02:19:06;;;;;;;1999.90;999.90;;;20.10;99.90;;;;;;5036211;28;20230;-72
2022/08/30 02:21:32;;;;;;;1999.90;999.90;;;20.10;99.90;;;;;;5037278;28;20175;-71
2022/08/30 02:23:58;;;;;;;1999.90;999.90;;;20.10;99.90;;;;;;5037204;28;20426;-71
2022/08/30 02:26:24;;;;;;;1999.90;999.90;;;20.10;99.90;;;;;;5036242;28;20498;-72
2022/08/30 02:28:51;;;;;;;1999.90;999.90;;;20.00;99.90;;;;;;5035523;28;20299;-72
2022/08/30 02:31:19;;;;;;;1999.90;999.90;;;20.00;99.90;;;;;;5036882;28;20407;-71
2022/08/30 02:33:45;;;;;;;1999.90;999.90;;;19.90;99.90;;;;;;5036746;28;20957;-71
2022/08/30 02:36:10;;;;;;;1999.90;999.90;;;19.90;99.90;;;;;;5036939;28;20415;-71
2022/08/30 02:38:36;;;;;;;1999.90;999.90;;;19.80;99.90;;;;;;5036885;28;20175;-71
2022/08/30 02:41:02;;;;;;;1999.90;999.90;;;19.80;99.90;;;;;;5036280;28;20198;-71
2022/08/30 02:43:28;;;;;;;1999.90;999.90;;;19.80;99.90;;;;;;5036475;28;20172;-70
2022/08/30 02:45:53;;;;;;;1999.90;999.90;;;19.70;99.90;;;;;;5033342;28;20173;-70
2022/08/30 02:48:19;;;;;;;1999.90;999.90;;;19.70;99.90;;;;;;5031701;28;20239;-70
2022/08/30 02:50:47;;;;;;;1999.90;999.90;;;19.70;99.90;;;;;;5031823;28;20183;-70
2022/08/30 02:53:13;;;;;;;1999.90;999.90;;;19.60;99.90;;;;;;5033530;28;20423;-71
2022/08/30 02:55:39;;;;;;;1999.90;999.90;;;19.60;99.90;;;;;;5034302;28;20417;-71
2022/08/30 02:58:05;;;;;;;1999.90;999.90;;;19.60;99.90;;;;;;5034117;28;20407;-72
2022/08/30 03:00:31;;;;;;;1999.90;999.90;;;19.50;99.90;;;;;;5034150;28;20587;-71
2022/08/30 03:02:57;;;;;;;1999.90;999.90;;;19.50;99.90;;;;;;5033971;28;20403;-71
2022/08/30 03:05:23;;;;;;;1999.90;999.90;;;19.40;99.90;;;;;;5033093;28;20837;-71
2022/08/30 03:07:49;;;;;;;1999.90;999.90;;;19.40;99.90;;;;;;5033309;28;20454;-71
2022/08/30 03:10:15;;;;;;;1999.90;999.90;;;19.30;99.90;;;;;;5033590;28;20546;-71
2022/08/30 03:12:41;;;;;;;1999.90;999.90;;;19.30;99.90;;;;;;5033306;28;20211;-71
2022/08/30 03:15:11;;;;;;;1999.90;999.90;;;19.30;99.90;;;;;;5033185;28;20423;-71
2022/08/30 03:17:37;;;;;;;1999.90;999.90;;;19.30;99.90;;;;;;5033401;28;20854;-72
2022/08/30 03:20:03;;;;;;;1999.90;999.90;;;19.30;99.90;;;;;;5033335;28;20406;-72
2022/08/30 03:22:28;;;;;;;1999.90;999.90;;;19.30;99.90;;;;;;5033979;28;20192;-72
2022/08/30 03:24:58;;;;;;;1999.90;999.90;;;19.30;99.90;;;;;;5034181;28;20431;-71
2022/08/30 03:27:24;;;;;;;1999.90;999.90;;;19.30;99.90;;;;;;5033502;28;20222;-70
2022/08/30 03:29:49;;;;;;;1999.90;999.90;;;19.30;99.90;;;;;;5035306;28;20561;-70
2022/08/30 03:32:15;;;;;;;1999.90;999.90;;;19.30;99.90;;;;;;5035205;28;20486;-70
2022/08/30 03:34:41;;;;;;;1999.90;999.90;;;19.30;99.90;;;;;;5038950;28;20208;-71
2022/08/30 03:37:06;;;;;;;1999.90;999.90;;;19.30;99.90;;;;;;5039586;28;20183;-71
2022/08/30 03:39:32;;;;;;;1999.90;999.90;;;19.30;99.90;;;;;;5040019;28;20657;-71
2022/08/30 03:41:57;;;;;;;1999.90;999.90;;;19.30;99.90;;;;;;5040092;28;20179;-71
2022/08/30 03:44:24;;;;;;;1999.90;999.90;;;19.30;99.90;;;;;;5039362;28;20227;-71
2022/08/30 03:46:50;;;;;;;1999.90;999.90;;;19.30;99.90;;;;;;5039205;28;20203;-71
2022/08/30 03:49:16;;;;;;;1999.90;999.90;;;19.20;99.90;;;;;;5039406;28;20469;-71
2022/08/30 03:51:42;;;;;;;1999.90;999.90;;;19.20;99.90;;;;;;5039899;28;20734;-71
2022/08/30 03:54:08;;;;;;;1999.90;999.90;;;19.30;99.90;;;;;;5040105;28;20446;-70
2022/08/30 03:56:34;;;;;;;1999.90;999.90;;;19.20;99.90;;;;;;5039026;28;20190;-71
2022/08/30 03:59:00;;;;;;;1999.90;999.90;;;19.20;99.90;;;;;;5039674;28;20418;-71
2022/08/30 04:01:25;;;;;;;1999.90;999.90;;;19.20;99.90;;;;;;5040065;28;20173;-71
2022/08/30 04:03:51;;;;;;;1999.90;999.90;;;19.20;99.90;;;;;;5040127;28;20249;-71
2022/08/30 04:06:17;;;;;;;1999.90;999.90;;;19.20;99.90;;;;;;5039354;28;20209;-71
2022/08/30 04:08:44;;;;;;;1999.90;999.90;;;19.20;99.90;;;;;;5039015;28;20180;-71
2022/08/30 04:11:11;;;;;;;1999.90;999.90;;;19.20;99.90;;;;;;5039245;28;20176;-71
2022/08/30 04:13:37;;;;;;;1999.90;999.90;;;19.10;99.90;;;;;;5038964;28;20786;-71
2022/08/30 04:16:03;;;;;;;1999.90;999.90;;;19.10;99.90;;;;;;5020797;28;20412;-71
2022/08/30 04:18:28;;;;;;;1999.90;999.90;;;19.00;99.90;;;;;;5039032;28;20636;-71
2022/08/30 04:20:54;;;;;;;1999.90;999.90;;;19.00;99.90;;;;;;5037999;28;20198;-71
2022/08/30 04:23:20;;;;;;;1999.90;999.90;;;19.00;99.90;;;;;;5034360;28;20173;-71
2022/08/30 04:25:45;;;;;;;1999.90;999.90;;;19.00;99.90;;;;;;5038149;28;20507;-71
2022/08/30 04:28:11;;;;;;;1999.90;999.90;;;19.10;99.90;;;;;;5038781;28;20586;-71
2022/08/30 04:30:39;;;;;;;1999.90;999.90;;;19.00;99.90;;;;;;5039260;28;20164;-71
2022/08/30 04:33:05;;;;;;;1999.90;999.90;;;19.10;99.90;;;;;;5039166;28;20188;-71
2022/08/30 04:35:31;;;;;;;1999.90;999.90;;;19.20;99.90;;;;;;5038135;28;20967;-71
2022/08/30 04:37:56;;;;;;;1999.90;999.90;;;19.20;99.90;;;;;;5038261;28;20470;-71
2022/08/30 04:40:22;;;;;;;1999.90;999.90;;;19.20;99.90;;;;;;5038626;28;20175;-71
2022/08/30 04:42:52;;;;;;;1999.90;999.90;;;19.20;99.90;;;;;;5034111;28;20180;-71
2022/08/30 04:45:19;;;;;;;1999.90;999.90;;;19.20;99.90;;;;;;5033814;28;21000;-70
2022/08/30 04:47:44;;;;;;;1999.90;999.90;;;19.10;99.90;;;;;;5033441;28;20458;-70
2022/08/30 04:50:13;;;;;;;1999.90;999.90;;;19.10;99.90;;;;;;5034003;28;20406;-70
2022/08/30 04:52:39;;;;;;;1999.90;999.90;;;19.10;99.90;;;;;;5033776;28;20218;-70
2022/08/30 04:55:07;;;;;;;1999.90;999.90;;;19.00;99.90;;;;;;5033684;28;20475;-70
2022/08/30 04:57:33;;;;;;;1999.90;999.90;;;19.00;99.90;;;;;;5033347;28;20194;-70
2022/08/30 05:00:00;;;;;;;1999.90;999.90;;;19.00;99.90;;;;;;5033613;28;20407;-70
2022/08/30 05:02:26;;;;;;;1999.90;999.90;;;19.10;99.90;;;;;;5033536;28;20420;-70
2022/08/30 05:07:35;;;;;;;1999.90;999.90;;;19.00;99.90;;;;;;5033253;28;20549;-70
2022/08/30 05:10:02;;;;;;;1999.90;999.90;;;19.00;99.90;;;;;;5033357;28;20408;-70
2022/08/30 05:12:28;;;;;;;1999.90;999.90;;;19.00;99.90;;;;;;5033326;28;20172;-70
2022/08/30 05:14:57;;;;;;;1999.90;999.90;;;19.00;99.90;;;;;;5033204;28;20423;-70
2022/08/30 05:17:23;;;;;;;1999.90;999.90;;;19.00;99.90;;;;;;5033503;28;20464;-71
2022/08/30 05:19:49;;;;;;;1999.90;999.90;;;19.00;99.90;;;;;;5035381;28;20416;-71
2022/08/30 05:22:15;;;;;;;1999.90;999.90;;;19.00;99.90;;;;;;5034504;28;20429;-71
2022/08/30 05:24:40;;;;;;;1999.90;999.90;;;18.90;99.90;;;;;;5034288;28;20188;-71
2022/08/30 05:27:06;;;;;;;1999.90;999.90;;;18.90;99.90;;;;;;5034126;28;20202;-71
2022/08/30 05:29:32;;;;;;;1999.90;999.90;;;19.00;99.90;;;;;;5034316;28;20187;-71
2022/08/30 05:31:58;;;;;;;1999.90;999.90;;;19.00;99.90;;;;;;5034863;28;20178;-71
2022/08/30 05:34:25;;;;;;;1999.90;999.90;;;18.90;99.90;;;;;;5032990;28;20443;-71
2022/08/30 05:36:52;;;;;;;1999.90;999.90;;;18.90;99.90;;;;;;5032646;28;20432;-71
2022/08/30 05:39:17;;;;;;;1999.90;999.90;;;18.90;99.90;;;;;;5035310;28;20416;-71
2022/08/30 05:41:43;;;;;;;1999.90;999.90;;;19.00;99.90;;;;;;5034691;28;20404;-71
2022/08/30 05:44:09;;;;;;;1999.90;999.90;;;19.00;99.90;;;;;;5034481;28;20213;-71
2022/08/30 05:46:35;;;;;;;1999.90;999.90;;;19.10;99.90;;;;;;5033999;28;20203;-71
2022/08/30 05:49:03;;;;;;;1999.90;999.90;;;19.10;99.90;;;;;;5034320;28;20446;-71
2022/08/30 05:51:30;;;;;;;1999.90;999.90;;;19.10;99.90;;;;;;5031724;28;20411;-71
2022/08/30 05:53:58;;;;;;;1999.90;999.90;;;19.20;99.90;;;;;;5032604;28;20468;-71
2022/08/30 05:56:35;;;;;;;1999.90;999.90;;;19.20;99.90;;;;;;5032209;28;20539;-71
2022/08/30 05:59:01;;;;;;;1999.90;999.90;;;19.20;99.90;;;;;;5032576;28;20404;-71
2022/08/30 06:01:30;;;;;;;1999.90;999.90;;;19.30;99.90;;;;;;5032475;28;20454;-71
2022/08/30 06:03:57;;;;;;;1999.90;999.90;;;19.30;99.90;;;;;;5032419;28;20426;-71
2022/08/30 06:06:23;;;;;;;1999.90;999.90;;;19.30;99.90;;;;;;5032043;28;20399;-71
2022/08/30 06:08:50;;;;;;;1999.90;999.90;;;19.30;99.90;;;;;;5032315;28;20403;-71
2022/08/30 06:11:18;;;;;;;1999.90;999.90;;;19.30;99.90;;;;;;5032188;28;20405;-71
2022/08/30 06:13:44;;;;;;;1999.90;999.90;;;19.40;99.90;;;;;;5032382;28;20433;-71
2022/08/30 06:16:12;;;;;;;1999.90;999.90;;;19.40;99.90;;;;;;5032006;28;20824;-71
2022/08/30 06:18:38;;;;;;;1999.90;999.90;;;19.40;99.90;;;;;;5032258;28;20825;-71
2022/08/30 06:21:03;;;;;;;1999.90;999.90;;;19.50;99.90;;;;;;5032122;28;20403;-71
2022/08/30 06:23:29;;;;;;;1999.90;999.90;;;19.60;99.90;;;;;;5032038;28;20262;-71
2022/08/30 06:25:55;;;;;;;1999.90;999.90;;;19.70;99.90;;;;;;5031995;28;20189;-71
2022/08/30 06:28:21;;;;;;;1999.90;999.90;;;19.70;99.90;;;;;;5031897;28;20453;-71
2022/08/30 06:30:47;;;;;;;1999.90;999.90;;;19.80;99.90;;;;;;5032125;28;20406;-71
2022/08/30 06:33:13;;;;;;;1999.90;999.90;;;20.00;99.90;;;;;;5032017;28;20250;-71
2022/08/30 06:35:38;;;;;;;1999.90;999.90;;;20.20;99.90;;;;;;5031949;28;20188;-71
2022/08/30 06:38:04;;;;;;;1999.90;999.90;;;20.40;99.90;;;;;;5031634;28;20164;-71
2022/08/30 06:40:30;;;;;;;1999.90;999.90;;;20.60;99.90;;;;;;5031905;28;20173;-71
2022/08/30 06:42:56;;;;;;;1999.90;999.90;;;20.80;99.90;;;;;;5032104;28;20226;-71
2022/08/30 06:45:21;;;;;;;1999.90;999.90;;;20.80;99.90;;;;;;5031881;28;20848;-71
2022/08/30 06:47:47;;;;;;;1999.90;999.90;;;20.90;99.90;;;;;;5031620;28;20270;-71
2022/08/30 06:50:15;;;;;;;1999.90;999.90;;;21.00;99.90;;;;;;5031892;28;20416;-71
2022/08/30 06:52:42;;;;;;;1999.90;999.90;;;21.00;99.90;;;;;;5031773;28;20177;-71
2022/08/30 06:55:13;;;;;;;1999.90;999.90;;;21.00;99.90;;;;;;5031739;28;20424;-71
2022/08/30 06:57:38;;;;;;;1999.90;999.90;;;21.00;99.90;;;;;;5031518;28;20404;-71
2022/08/30 07:00:08;;;;;;;1999.90;999.90;;;21.00;99.90;;;;;;5031805;28;20782;-71
2022/08/30 07:02:35;;;;;;;1999.90;999.90;;;21.10;99.90;;;;;;5034469;28;20174;-71
2022/08/30 07:05:01;;;;;;;1999.90;999.90;;;21.30;99.90;;;;;;5035706;28;20988;-71
2022/08/30 07:07:27;;;;;;;1999.90;999.90;;;21.30;99.90;;;;;;5035302;28;20489;-71
2022/08/30 07:09:53;;;;;;;1999.90;999.90;;;21.40;99.90;;;;;;5035695;28;20495;-71
2022/08/30 07:12:19;;;;;;;1999.90;999.90;;;21.50;99.90;;;;;;5035612;28;20771;-71
2022/08/30 07:14:45;;;;;;;1999.90;999.90;;;21.50;99.90;;;;;;5035458;28;20524;-71
2022/08/30 07:19:55;;;;;;;1999.90;999.90;;;21.60;99.90;;;;;;5036042;28;20413;-71
2022/08/30 07:22:21;;;;;;;1999.90;999.90;;;21.70;99.90;;;;;;5037683;28;20403;-71
2022/08/30 07:24:47;;;;;;;1999.90;999.90;;;21.70;99.90;;;;;;5035449;28;20201;-71
2022/08/30 07:27:13;;;;;;;1999.90;999.90;;;21.80;99.90;;;;;;5035026;28;20203;-71
2022/08/30 07:29:39;;;;;;;1999.90;999.90;;;22.00;99.90;;;;;;5038521;28;20443;-71
2022/08/30 07:32:05;;;;;;;1999.90;999.90;;;22.10;99.90;;;;;;5039758;28;20408;-71
2022/08/30 07:34:31;;;;;;;1999.90;999.90;;;22.10;99.90;;;;;;5040010;28;21009;-71
2022/08/30 07:36:56;;;;;;;1999.90;999.90;;;22.20;99.90;;;;;;5040148;28;20225;-71
2022/08/30 07:39:22;;;;;;;1999.90;999.90;;;22.40;99.90;;;;;;5040300;28;20176;-71
2022/08/30 07:41:48;;;;;;;1999.90;999.90;;;22.60;99.90;;;;;;5040966;28;20263;-71
2022/08/30 07:44:13;;;;;;;1999.90;999.90;;;22.80;99.90;;;;;;5040589;28;20202;-71
2022/08/30 07:46:40;;;;;;;1999.90;999.90;;;22.90;99.90;;;;;;5040204;28;20458;-71
2022/08/30 07:49:08;;;;;;;1999.90;999.90;;;23.10;99.90;;;;;;5041008;28;20179;-71
2022/08/30 07:51:34;;;;;;;1999.90;999.90;;;23.20;99.90;;;;;;5041029;28;20381;-71
2022/08/30 07:53:59;;;;;;;1999.90;999.90;;;23.20;99.90;;;;;;5041179;28;20440;-71
2022/08/30 07:56:25;;;;;;;1999.90;999.90;;;23.30;99.90;;;;;;5041021;28;20435;-71
2022/08/30 07:58:52;;;;;;;1999.90;999.90;;;23.40;99.90;;;;;;5041486;28;20179;-71
2022/08/30 08:01:19;;;;;;;1999.90;999.90;;;23.60;99.90;;;;;;5041737;28;20405;-70
2022/08/30 08:03:46;;;;;;;1999.90;999.90;;;23.70;99.90;;;;;;5040987;28;20394;-71
2022/08/30 08:06:14;;;;;;;1999.90;999.90;;;23.70;99.90;;;;;;5041353;28;20757;-71
2022/08/30 08:08:40;;;;;;;1999.90;999.90;;;23.90;99.90;;;;;;5041003;28;20882;-71
2022/08/30 08:11:28;;;;;;;1999.90;999.90;;;24.00;99.90;;;;;;5040968;28;20775;-71
2022/08/30 08:13:53;;;;;;;1999.90;999.90;;;24.10;99.90;;;;;;5039911;28;20431;-71
2022/08/30 08:16:21;;;;;;;1999.90;999.90;;;24.30;99.90;;;;;;5041084;28;20405;-71
2022/08/30 08:18:47;;;;;;;1999.90;999.90;;;24.40;99.90;;;;;;5041279;28;20810;-71
2022/08/30 08:21:13;;;;;;;1999.90;999.90;;;24.50;99.90;;;;;;5041792;28;20411;-71
2022/08/30 08:23:38;;;;;;;1999.90;999.90;;;24.60;99.90;;;;;;5041261;28;20168;-70
2022/08/30 08:26:04;;;;;;;1999.90;999.90;;;24.70;99.90;;;;;;5040856;28;20247;-71
2022/08/30 08:28:30;;;;;;;1999.90;999.90;;;24.70;99.90;;;;;;5041411;28;20203;-71
2022/08/30 08:30:56;;;;;;;1999.90;999.90;;;24.70;99.90;;;;;;5042737;28;20550;-72
2022/08/30 08:33:22;;;;;;;1999.90;999.90;;;24.80;99.90;;;;;;5042151;28;20188;-71
2022/08/30 08:35:48;;;;;;;1999.90;999.90;;;24.90;99.90;;;;;;5042763;28;20252;-71
2022/08/30 08:38:14;;;;;;;1999.90;999.90;;;25.20;99.90;;;;;;5041885;28;20412;-71
2022/08/30 08:41:25;;;;;;;1999.90;999.90;;;25.30;99.10;;;;;;5025748;28;20484;-71
2022/08/30 08:43:50;;;;;;;1999.90;999.90;;;25.40;97.60;;;;;;4942950;29;20941;-71
2022/08/30 08:46:56;;;;;;;1999.90;999.90;;;25.50;96.80;;;;;;5021273;28;20428;-71
2022/08/30 08:49:21;;;;;;;1999.90;999.90;;;25.60;95.60;;;;;;5027630;28;20593;-71
2022/08/30 08:54:41;;;;;;;1999.90;999.90;;;25.70;93.80;;;;;;5042746;28;20199;-71
2022/08/30 08:57:09;;;;;;;1999.90;999.90;;;25.90;93.20;;;;;;5041151;28;20381;-70
2022/08/30 08:59:35;;;;;;;1999.90;999.90;;;26.00;90.90;;;;;;5042722;28;20413;-71
2022/08/30 09:02:14;;;;;;;1999.90;999.90;;;26.00;90.10;;;;;;5042793;28;20390;-70
2022/08/30 09:04:40;;;;;;;1999.90;999.90;;;26.10;88.50;;;;;;5041572;28;20412;-71
2022/08/30 09:07:16;;;;;;;1999.90;999.90;;;26.10;88.60;;;;;;5041872;28;20425;-71
2022/08/30 09:09:42;;;;;;;1999.90;999.90;;;26.20;86.60;;;;;;5040687;28;20187;-71
2022/08/30 09:12:10;;;;;;;1999.90;999.90;;;26.30;79.60;;;;;;5042800;28;20471;-71
2022/08/30 09:14:45;;;;;;;1999.90;999.90;;;26.50;78.50;;;;;;5042694;28;20792;-70
2022/08/30 09:17:16;;;;;;;1999.90;999.90;;;26.60;74.50;;;;;;5042942;28;21141;-71
2022/08/30 09:19:55;;;;;;;1999.90;999.90;;;26.80;71.70;;;;;;5043387;28;20498;-72
2022/08/30 09:22:29;;;;;;;1999.90;999.90;;;26.90;69.20;;;;;;5044584;28;20414;-72
2022/08/30 09:24:59;;;;;;;1999.90;999.90;;;27.00;69.00;;;;;;5036096;28;20422;-72
2022/08/30 09:27:31;;;;;;;1999.90;999.90;;;27.00;67.20;;;;;;5073061;22;21012;-65
2022/08/30 09:30:03;;;;;;;1999.90;999.90;;;27.00;67.00;;;;;;5033088;28;20401;-64
2022/08/30 09:32:30;;;;;;;1999.90;999.90;;;27.00;68.20;;;;;;5033027;28;20430;-65
2022/08/30 09:34:56;;;;;;;1999.90;999.90;;;27.10;68.30;;;;;;5033016;28;20937;-65
2022/08/30 09:37:30;;;;;;;1999.90;999.90;;;27.10;66.60;;;;;;5032570;28;20246;-65
2022/08/30 09:39:57;;;;;;;1999.90;999.90;;;27.20;63.20;;;;;;5033052;28;20383;-65
2022/08/30 09:42:26;;;;;;;1999.90;999.90;;;27.20;64.10;;;;;;5039955;28;20414;-64
2022/08/30 09:45:09;;;;;;;1999.90;999.90;;;27.30;62.40;;;;;;5039634;28;20425;-65
2022/08/30 09:47:35;;;;;;;1999.90;999.90;;;27.40;62.60;;;;;;5032789;28;20436;-65
2022/08/30 09:50:12;;;;;;;1999.90;999.90;;;27.70;60.20;;;;;;5032692;28;20566;-65
2022/08/30 09:52:59;;;;;;;1999.90;999.90;;;28.00;57.30;;;;;;5032682;28;20423;-65
2022/08/30 09:55:32;;;;;;;1999.90;999.90;;;28.10;55.20;;;;;;5032651;28;20385;-64
2022/08/30 09:58:16;;;;;;;1999.90;999.90;;;28.10;53.40;;;;;;5032326;28;20411;-65
2022/08/30 10:01:07;;;;;;;1999.90;999.90;;;28.30;52.10;;;;;;5032567;28;20411;-63
2022/08/30 10:03:55;;;;;;;1999.90;999.90;;;28.40;49.60;;;;;;5032499;28;20407;-64
2022/08/30 10:06:38;;;;;;;1999.90;999.90;;;28.70;49.10;;;;;;5032086;28;20767;-64
2022/08/30 10:09:24;;;;;;;1999.90;999.90;;;29.00;45.90;;;;;;5032395;28;20432;-64
2022/08/30 10:12:11;;;;;;;1999.90;999.90;;;29.10;44.90;;;;;;5032379;28;20416;-65
2022/08/30 10:14:54;;;;;;;1999.90;999.90;;;29.40;42.60;;;;;;5032310;28;20362;-64
2022/08/30 10:17:44;;;;;;;1999.90;999.90;;;29.30;39.70;;;;;;5035596;28;20427;-65
2022/08/30 10:20:30;;;;;;;1999.90;999.90;;;29.30;39.10;;;;;;5040813;28;20461;-65
2022/08/30 10:23:03;;;;;;;1999.90;999.90;;;29.20;37.80;;;;;;5041369;28;20399;-65
2022/08/30 10:25:37;;;;;;;1999.90;999.90;;;29.20;37.70;;;;;;5040187;28;20406;-64
2022/08/30 10:28:13;;;;;;;1999.90;999.90;;;29.30;37.50;;;;;;5040133;28;20455;-64
2022/08/30 10:30:44;;;;;;;1999.90;999.90;;;29.40;35.90;;;;;;5040989;28;20369;-64
2022/08/30 10:33:17;;;;;;;1999.90;999.90;;;29.50;34.20;;;;;;5041364;28;20501;-66
2022/08/30 10:35:51;;;;;;;1999.90;999.90;;;29.60;33.40;;;;;;5037069;28;20502;-65
2022/08/30 10:38:37;;;;;;;1999.90;999.90;;;29.70;32.10;;;;;;5041428;28;20453;-65
2022/08/30 10:41:19;;;;;;;1999.90;999.90;;;29.80;32.20;;;;;;5040754;28;20406;-65
2022/08/30 10:43:52;;;;;;;1999.90;999.90;;;29.80;29.50;;;;;;5040771;28;20772;-65
2022/08/30 10:46:55;;;;;;;1999.90;999.90;;;29.40;29.70;;;;;;5039863;28;20439;-65
2022/08/30 10:49:24;;;;;;;1999.90;999.90;;;29.60;30.50;;;;;;5039595;28;20442;-65
2022/08/30 10:52:04;;;;;;;1999.90;999.90;;;29.80;30.70;;;;;;5031912;28;20815;-65
2022/08/30 10:54:49;;;;;;;1999.90;999.90;;;30.00;29.50;;;;;;5034458;28;20464;-66
2022/08/30 10:57:16;;;;;;;1999.90;999.90;;;29.90;28.40;;;;;;5038941;28;20458;-65
2022/08/30 10:59:47;;;;;;;1999.90;999.90;;;29.80;28.70;;;;;;5039794;28;20411;-65
2022/08/30 11:02:56;;;;;;;1999.90;999.90;;;30.00;29.00;;;;;;5035630;28;20403;-65
2022/08/30 11:05:42;;;;;;;1999.90;999.90;;;30.20;28.80;;;;;;5010725;28;20477;-65
2022/08/30 11:08:45;;;;;;;1999.90;999.90;;;30.40;27.50;;;;;;5031384;28;20458;-65
2022/08/30 11:11:50;;;;;;;1999.90;999.90;;;30.60;26.50;;;;;;5031851;28;20916;-65
2022/08/30 11:14:18;;;;;;;1999.90;999.90;;;30.80;25.90;;;;;;5031931;28;20905;-64
2022/08/30 11:16:47;;;;;;;1999.90;999.90;;;30.80;24.90;;;;;;5031259;28;20430;-65
2022/08/30 11:19:25;;;;;;;1999.90;999.90;;;30.60;25.20;;;;;;5031698;28;20981;-65
2022/08/30 11:21:52;;;;;;;1999.90;999.90;;;30.70;26.00;;;;;;5031865;28;20427;-65
2022/08/30 11:24:19;;;;;;;1999.90;999.90;;;31.20;25.80;;;;;;5031734;28;20411;-65
2022/08/30 11:26:48;;;;;;;1999.90;999.90;;;31.60;25.10;;;;;;5031114;28;20447;-65
2022/08/30 11:29:28;;;;;;;1999.90;999.90;;;31.40;22.90;;;;;;5031514;28;20431;-65
2022/08/30 11:31:56;;;;;;;1999.90;999.90;;;31.30;23.80;;;;;;5031429;28;20430;-65
2022/08/30 11:34:47;;;;;;;1999.90;999.90;;;31.40;23.60;;;;;;5031713;28;20385;-65
2022/08/30 11:37:35;;;;;;;1999.90;999.90;;;31.60;22.80;;;;;;5031126;28;20426;-65
2022/08/30 11:40:10;;;;;;;1999.90;999.90;;;31.70;22.60;;;;;;5031375;28;20904;-65
2022/08/30 11:42:44;;;;;;;1999.90;999.90;;;31.70;22.10;;;;;;5031460;28;20445;-65
2022/08/30 11:45:22;;;;;;;1999.90;999.90;;;31.80;21.70;;;;;;5031591;28;20403;-65
2022/08/30 11:47:52;;;;;;;1999.90;999.90;;;32.00;21.50;;;;;;5032357;28;20520;-65
2022/08/30 11:50:49;;;;;;;1999.90;999.90;;;32.30;21.20;;;;;;5034934;28;20406;-65
2022/08/30 11:53:20;;;;;;;1999.90;999.90;;;32.80;20.50;;;;;;5035130;28;20407;-65
2022/08/30 11:55:51;;;;;;;1999.90;999.90;;;33.20;20.60;;;;;;5034850;28;20423;-65
2022/08/30 11:58:28;;;;;;;1999.90;999.90;;;33.60;19.50;;;;;;5040107;28;20414;-64
2022/08/30 12:01:17;;;;;;;1999.90;999.90;;;33.60;19.10;;;;;;5034710;28;20446;-65
2022/08/30 12:03:43;;;;;;;1999.90;999.90;;;33.40;19.40;;;;;;5034915;28;20406;-65
2022/08/30 12:06:11;;;;;;;1999.90;999.90;;;33.60;19.30;;;;;;5037980;28;20830;-65
2022/08/30 12:08:50;;;;;;;1999.90;999.90;;;33.70;18.20;;;;;;5047458;28;20450;-65
2022/08/30 12:11:16;;;;;;;1999.90;999.90;;;33.90;18.10;;;;;;5046201;28;20765;-65
2022/08/30 12:13:41;;;;;;;1999.90;999.90;;;34.20;17.60;;;;;;5046987;28;20461;-64
2022/08/30 12:18:26;;;;;;;1999.90;999.90;;;34.60;17.70;;;;;;5047163;28;20187;-65
2022/08/30 12:19:24;;;;;;;1999.90;999.90;;;34.90;16.80;;;;;;5034269;28;20164;-65